createdAt,value
2022-11-24T00:01:13.350Z,26.50
2022-11-24T00:03:54.086Z,25.10
2022-11-24T00:06:29.294Z,25.80
2022-11-24T00:09:04.555Z,26.10
2022-11-24T00:11:39.804Z,28.80
2022-11-24T00:14:15.056Z,28.80
2022-11-24T00:16:49.071Z,25.70
2022-11-24T00:19:23.657Z,24.80
2022-11-24T00:21:58.012Z,24.90
2022-11-24T00:24:32.552Z,24.80
2022-11-24T00:27:07.001Z,27.40
2022-11-24T00:29:41.005Z,27.00
2022-11-24T00:32:15.300Z,25.90
2022-11-24T00:34:49.565Z,26.40
2022-11-24T00:37:23.518Z,25.40
2022-11-24T00:39:57.450Z,25.00
2022-11-24T00:42:31.530Z,26.30
2022-11-24T00:45:13.576Z,28.40
2022-11-24T00:47:48.598Z,25.20
2022-11-24T00:50:23.551Z,25.40
2022-11-24T00:52:57.517Z,25.40
2022-11-24T00:55:31.646Z,24.00
2022-11-24T00:58:05.952Z,27.50
2022-11-24T01:00:40.202Z,28.50
2022-11-24T01:03:15.402Z,24.50
2022-11-24T01:05:49.750Z,24.70
2022-11-24T01:08:23.553Z,24.50
2022-11-24T01:11:07.454Z,24.10
2022-11-24T01:13:42.597Z,26.50
2022-11-24T01:16:22.840Z,27.70
2022-11-24T01:18:57.129Z,26.10
2022-11-24T01:21:31.136Z,23.30
2022-11-24T01:24:05.757Z,23.60
2022-11-24T01:26:41.017Z,24.60
2022-11-24T01:29:16.196Z,26.50
2022-11-24T01:31:50.283Z,27.90
2022-11-24T01:34:24.908Z,24.40
2022-11-24T01:36:58.927Z,23.60
2022-11-24T01:39:32.956Z,24.00
2022-11-24T01:42:07.327Z,24.40
2022-11-24T01:44:42.512Z,25.70
2022-11-24T01:47:35.940Z,27.70
2022-11-24T01:50:17.622Z,24.70
2022-11-24T01:52:56.530Z,23.60
2022-11-24T01:55:39.192Z,24.70
2022-11-24T01:58:20.731Z,26.30
2022-11-24T02:00:55.914Z,26.70
2022-11-24T02:03:37.064Z,25.00
2022-11-24T02:06:15.389Z,23.90
2022-11-24T02:08:59.050Z,23.90
2022-11-24T02:11:38.469Z,23.70
2022-11-24T02:14:17.165Z,24.80
2022-11-24T02:16:54.178Z,26.60
2022-11-24T02:19:44.388Z,25.00
2022-11-24T02:22:27.403Z,22.70
2022-11-24T02:25:14.804Z,23.40
2022-11-24T02:27:53.822Z,23.10
2022-11-24T02:30:28.770Z,25.00
2022-11-24T02:33:03.846Z,26.70
2022-11-24T02:35:39.185Z,25.10
2022-11-24T02:38:15.526Z,24.00
2022-11-24T02:40:52.713Z,24.70
2022-11-24T02:43:31.093Z,23.90
2022-11-24T02:46:05.126Z,26.40
2022-11-24T02:48:39.325Z,28.00
2022-11-24T02:51:13.557Z,25.50
2022-11-24T02:53:47.582Z,25.50
2022-11-24T02:56:21.700Z,24.30
2022-11-24T02:58:55.991Z,23.20
2022-11-24T03:01:30.195Z,26.60
2022-11-24T03:04:04.639Z,27.30
2022-11-24T03:06:38.917Z,25.70
2022-11-24T03:09:12.970Z,23.40
2022-11-24T03:11:47.171Z,24.30
2022-11-24T03:14:21.499Z,22.90
2022-11-24T03:16:55.510Z,25.80
2022-11-24T03:19:30.082Z,25.90
2022-11-24T03:22:04.280Z,23.80
2022-11-24T03:24:38.549Z,23.20
2022-11-24T03:27:12.460Z,23.10
2022-11-24T03:29:46.645Z,22.00
2022-11-24T03:32:20.975Z,24.60
2022-11-24T03:34:55.119Z,25.20
2022-11-24T03:37:29.449Z,24.30
2022-11-24T03:40:03.587Z,23.40
2022-11-24T03:42:37.639Z,21.90
2022-11-24T03:48:08.118Z,25.50
2022-11-24T03:50:42.126Z,24.20
2022-11-24T03:53:16.142Z,23.10
2022-11-24T03:55:50.065Z,22.10
2022-11-24T03:58:24.439Z,21.10
2022-11-24T04:00:59.390Z,21.90
2022-11-24T04:03:33.654Z,24.80
2022-11-24T04:06:07.825Z,24.10
2022-11-24T04:08:42.211Z,22.20
2022-11-24T04:11:29.919Z,21.20
2022-11-24T04:14:06.722Z,21.80
2022-11-24T04:18:43.583Z,22.40
2022-11-24T04:21:17.612Z,22.30
2022-11-24T04:23:51.937Z,20.60
2022-11-24T04:26:26.018Z,21.40
2022-11-24T04:29:00.101Z,22.40
2022-11-24T04:31:34.128Z,19.60
2022-11-24T04:34:08.672Z,22.00
2022-11-24T04:36:42.941Z,21.80
2022-11-24T04:39:20.140Z,22.30
2022-11-24T04:41:58.703Z,21.20
2022-11-24T04:44:32.862Z,22.20
2022-11-24T04:47:08.277Z,21.10
2022-11-24T04:49:42.417Z,21.40
2022-11-24T04:52:16.967Z,22.60
2022-11-24T04:54:51.473Z,22.20
2022-11-24T04:57:28.345Z,22.30
2022-11-24T05:00:02.640Z,22.10
2022-11-24T05:02:36.902Z,20.70
2022-11-24T05:05:12.469Z,22.70
2022-11-24T05:07:46.866Z,23.30
2022-11-24T05:10:37.551Z,22.40
2022-11-24T05:13:15.356Z,22.00
2022-11-24T05:15:49.776Z,22.00
2022-11-24T05:18:23.737Z,21.10
2022-11-24T05:20:58.939Z,21.10
2022-11-24T05:23:33.394Z,23.10
2022-11-24T05:26:08.309Z,22.60
2022-11-24T05:28:42.405Z,21.30
2022-11-24T05:31:16.494Z,20.10
2022-11-24T05:33:50.837Z,20.60
2022-11-24T05:36:42.752Z,21.20
2022-11-24T05:39:17.206Z,23.00
2022-11-24T05:41:51.518Z,19.60
2022-11-24T05:44:26.006Z,18.50
2022-11-24T05:47:00.508Z,20.00
2022-11-24T05:49:34.789Z,21.20
2022-11-24T05:52:09.336Z,21.90
2022-11-24T05:54:43.956Z,21.10
2022-11-24T05:57:19.503Z,20.00
2022-11-24T05:59:53.490Z,21.00
2022-11-24T06:02:28.246Z,20.50
2022-11-24T06:05:02.335Z,20.70
2022-11-24T06:07:36.593Z,22.10
2022-11-24T06:10:12.372Z,22.10
2022-11-24T06:12:46.632Z,21.10
2022-11-24T06:15:20.927Z,20.00
2022-11-24T06:17:59.065Z,20.30
2022-11-24T06:20:33.282Z,21.50
2022-11-24T06:23:07.886Z,21.40
2022-11-24T06:25:47.336Z,21.20
2022-11-24T06:28:24.349Z,20.00
2022-11-24T06:31:00.952Z,20.00
2022-11-24T06:33:38.350Z,20.40
2022-11-24T06:36:17.161Z,20.20
2022-11-24T06:38:50.901Z,20.10
2022-11-24T06:41:24.932Z,22.80
2022-11-24T06:43:58.861Z,19.90
2022-11-24T06:46:33.079Z,20.70
2022-11-24T06:49:07.374Z,19.60
2022-11-24T06:51:42.125Z,19.80
2022-11-24T06:54:22.246Z,20.50
2022-11-24T06:57:00.917Z,20.60
2022-11-24T06:59:35.049Z,18.90
2022-11-24T07:02:10.144Z,19.50
2022-11-24T07:04:43.950Z,19.90
2022-11-24T07:07:17.981Z,19.10
2022-11-24T07:09:51.786Z,19.20
2022-11-24T07:12:25.845Z,20.10
2022-11-24T07:14:59.879Z,19.90
2022-11-24T07:17:36.677Z,19.90
2022-11-24T07:20:12.995Z,21.80
2022-11-24T07:22:47.619Z,19.70
2022-11-24T07:25:21.469Z,22.60
2022-11-24T07:28:00.862Z,22.70
2022-11-24T07:30:34.906Z,20.80
2022-11-24T07:33:08.985Z,22.00
2022-11-24T07:35:42.697Z,22.10
2022-11-24T07:38:17.439Z,21.10
2022-11-24T07:40:51.901Z,21.40
2022-11-24T07:43:28.300Z,22.90
2022-11-24T07:46:02.419Z,22.40
2022-11-24T07:48:36.211Z,23.70
2022-11-24T07:51:11.508Z,23.50
2022-11-24T07:53:46.983Z,22.10
2022-11-24T07:56:21.119Z,23.80
2022-11-24T07:58:56.724Z,23.60
2022-11-24T08:01:30.474Z,21.90
2022-11-24T08:04:05.652Z,21.50
2022-11-24T08:06:43.287Z,22.80
2022-11-24T08:09:20.875Z,23.80
2022-11-24T08:11:54.550Z,26.30
2022-11-24T08:14:28.600Z,29.90
2022-11-24T08:17:05.947Z,32.80
2022-11-24T08:19:40.320Z,29.20
2022-11-24T08:22:14.127Z,29.30
2022-11-24T08:24:49.099Z,29.10
2022-11-24T08:27:23.859Z,27.70
2022-11-24T08:29:57.670Z,27.30
2022-11-24T08:32:31.526Z,25.60
2022-11-24T08:35:14.001Z,25.00
2022-11-24T08:37:48.875Z,23.80
2022-11-24T08:40:23.375Z,23.90
2022-11-24T08:43:02.250Z,23.40
2022-11-24T08:45:41.108Z,24.80
2022-11-24T08:48:15.780Z,24.90
2022-11-24T08:50:50.190Z,25.50
2022-11-24T08:53:24.241Z,29.50
2022-11-24T08:56:02.431Z,30.00
2022-11-24T08:58:37.568Z,33.50
2022-11-24T09:01:14.542Z,35.00
2022-11-24T09:03:51.473Z,34.20
2022-11-24T09:06:31.693Z,29.20
2022-11-24T09:09:08.258Z,27.80
2022-11-24T09:11:42.254Z,25.80
2022-11-24T09:14:16.028Z,30.10
2022-11-24T09:16:50.217Z,32.20
2022-11-24T09:19:24.083Z,28.60
2022-11-24T09:21:57.916Z,34.10
2022-11-24T09:24:31.891Z,31.10
2022-11-24T09:27:05.910Z,35.60
2022-11-24T09:29:40.043Z,33.40
2022-11-24T09:32:13.730Z,34.70
2022-11-24T09:34:47.613Z,31.30
2022-11-24T09:37:21.546Z,34.20
2022-11-24T09:39:55.255Z,27.70
2022-11-24T09:42:42.185Z,28.80
2022-11-24T09:46:05.093Z,25.10
2022-11-24T09:48:42.899Z,27.20
2022-11-24T09:51:22.364Z,23.50
2022-11-24T09:54:07.300Z,25.50
2022-11-24T09:56:45.311Z,23.10
2022-11-24T09:59:22.612Z,26.00
2022-11-24T10:01:57.297Z,20.80
2022-11-24T10:04:40.871Z,21.70
2022-11-24T10:07:29.119Z,19.00
2022-11-24T10:10:21.216Z,18.30
2022-11-24T10:13:17.299Z,15.70
2022-11-24T10:16:05.540Z,19.10
2022-11-24T10:18:53.089Z,18.80
2022-11-24T10:21:54.208Z,18.90
2022-11-24T10:25:13.019Z,22.30
2022-11-24T10:27:53.583Z,24.90
2022-11-24T10:30:28.480Z,25.10
2022-11-24T10:33:14.482Z,24.80
2022-11-24T10:35:55.068Z,25.90
2022-11-24T10:38:43.397Z,27.80
2022-11-24T10:41:25.235Z,25.40
2022-11-24T10:44:02.177Z,25.20
2022-11-24T10:46:39.323Z,19.80
2022-11-24T10:49:25.540Z,23.80
2022-11-24T10:52:12.849Z,22.50
2022-11-24T10:55:02.599Z,27.30
2022-11-24T10:57:40.030Z,25.80
2022-11-24T11:00:38.028Z,24.30
2022-11-24T11:03:25.135Z,20.20
2022-11-24T11:06:11.749Z,25.00
2022-11-24T11:08:45.988Z,25.50
2022-11-24T11:11:28.270Z,21.20
2022-11-24T11:14:05.894Z,26.30
2022-11-24T11:16:46.081Z,24.90
2022-11-24T11:19:48.860Z,22.10
2022-11-24T11:22:33.482Z,21.50
2022-11-24T11:25:24.770Z,24.90
2022-11-24T11:28:27.858Z,27.10
2022-11-24T11:31:22.230Z,26.80
2022-11-24T11:34:07.333Z,26.30
2022-11-24T11:36:49.884Z,28.30
2022-11-24T11:39:31.193Z,29.00
2022-11-24T11:42:45.404Z,26.10
2022-11-24T11:45:20.351Z,28.10
2022-11-24T11:48:03.316Z,29.10
2022-11-24T11:51:21.129Z,27.10
2022-11-24T11:53:50.182Z,28.40
2022-11-24T11:56:32.367Z,27.20
2022-11-24T11:59:55.110Z,27.70
2022-11-24T12:03:04.091Z,25.60
2022-11-24T12:05:52.315Z,22.60
2022-11-24T12:09:18.010Z,25.80
2022-11-24T12:11:50.687Z,25.30
2022-11-24T12:14:39.408Z,25.90
2022-11-24T12:17:29.251Z,26.00
2022-11-24T12:20:32.223Z,26.20
2022-11-24T12:23:21.272Z,27.40
2022-11-24T12:26:06.704Z,26.70
2022-11-24T12:29:04.259Z,27.20
2022-11-24T12:31:52.856Z,28.10
2022-11-24T12:34:47.784Z,29.70
2022-11-24T12:37:46.733Z,28.10
2022-11-24T12:40:35.235Z,27.80
2022-11-24T12:43:22.214Z,27.90
2022-11-24T12:46:13.934Z,28.20
2022-11-24T12:49:04.463Z,27.70
2022-11-24T12:51:43.455Z,28.80
2022-11-24T12:54:21.323Z,29.50
2022-11-24T12:57:07.548Z,24.80
2022-11-24T12:59:53.306Z,28.60
2022-11-24T13:02:48.326Z,28.80
2022-11-24T13:05:33.342Z,26.80
2022-11-24T13:08:08.704Z,28.20
2022-11-24T13:10:58.568Z,28.00
2022-11-24T13:14:00.821Z,26.40
2022-11-24T13:16:38.526Z,27.80
2022-11-24T13:19:21.866Z,27.70
2022-11-24T13:22:15.326Z,27.50
2022-11-24T13:25:14.618Z,26.30
2022-11-24T13:27:55.475Z,29.00
2022-11-24T13:31:12.553Z,27.20
2022-11-24T13:33:47.108Z,27.40
2022-11-24T13:36:52.900Z,27.00
2022-11-24T13:39:51.144Z,27.10
2022-11-24T13:42:43.971Z,27.30
2022-11-24T13:45:54.132Z,27.90
2022-11-24T13:49:01.918Z,25.70
2022-11-24T13:51:36.001Z,25.90
2022-11-24T13:54:15.297Z,26.30
2022-11-24T13:56:49.127Z,27.70
2022-11-24T13:59:36.371Z,27.80
2022-11-24T14:02:26.952Z,27.60
2022-11-24T14:05:01.773Z,27.60
2022-11-24T14:07:37.278Z,27.10
2022-11-24T14:10:22.804Z,26.30
2022-11-24T14:13:28.022Z,25.30
2022-11-24T14:16:15.000Z,30.90
2022-11-24T14:18:50.755Z,31.50
2022-11-24T14:21:32.154Z,35.90
2022-11-24T14:24:13.835Z,36.50
2022-11-24T14:26:50.518Z,33.70
2022-11-24T14:29:28.437Z,32.00
2022-11-24T14:32:05.235Z,25.30
2022-11-24T14:34:40.093Z,31.20
2022-11-24T14:37:14.396Z,31.60
2022-11-24T14:39:48.607Z,33.10
2022-11-24T14:42:26.133Z,29.80
2022-11-24T14:45:04.112Z,31.10
2022-11-24T14:47:46.100Z,32.10
2022-11-24T14:50:23.857Z,31.80
2022-11-24T14:53:00.153Z,32.10
2022-11-24T14:55:36.982Z,32.60
2022-11-24T14:58:40.456Z,34.10
2022-11-24T15:01:30.302Z,34.10
2022-11-24T15:05:01.563Z,38.80
2022-11-24T15:07:27.412Z,34.10
2022-11-24T15:10:03.743Z,32.60
2022-11-24T15:12:43.019Z,29.00
2022-11-24T15:15:26.041Z,28.20
2022-11-24T15:18:02.820Z,30.60
2022-11-24T15:20:41.800Z,30.40
2022-11-24T15:23:26.474Z,29.90
2022-11-24T15:26:23.767Z,31.40
2022-11-24T15:29:01.310Z,32.10
2022-11-24T15:31:35.262Z,29.50
2022-11-24T15:34:11.843Z,29.70
2022-11-24T15:36:45.923Z,30.60
2022-11-24T15:39:20.591Z,31.70
2022-11-24T15:41:54.561Z,31.00
2022-11-24T15:44:29.590Z,31.70
2022-11-24T15:47:03.388Z,33.00
2022-11-24T15:49:37.202Z,34.20
2022-11-24T15:52:11.159Z,36.40
2022-11-24T15:54:45.005Z,35.00
2022-11-24T15:57:18.758Z,36.40
2022-11-24T15:59:52.991Z,46.30
2022-11-24T16:02:27.230Z,55.30
2022-11-24T16:05:01.422Z,57.60
2022-11-24T16:07:35.207Z,53.20
2022-11-24T16:10:21.542Z,53.20
2022-11-24T16:12:55.512Z,52.30
2022-11-24T16:15:31.512Z,54.90
2022-11-24T16:18:06.275Z,51.70
2022-11-24T16:20:41.041Z,34.00
2022-11-24T16:23:14.786Z,31.50
2022-11-24T16:25:48.419Z,30.20
2022-11-24T16:28:22.608Z,32.70
2022-11-24T16:30:56.374Z,33.10
2022-11-24T16:33:31.112Z,32.00
2022-11-24T16:36:05.046Z,32.70
2022-11-24T16:38:38.908Z,34.60
2022-11-24T16:41:13.269Z,34.90
2022-11-24T16:43:47.306Z,35.70
2022-11-24T16:46:26.321Z,29.40
2022-11-24T16:49:03.675Z,30.20
2022-11-24T16:51:38.097Z,30.20
2022-11-24T16:54:15.038Z,33.00
2022-11-24T16:56:49.026Z,32.10
2022-11-24T16:59:23.126Z,31.00
2022-11-24T17:01:57.319Z,30.70
2022-11-24T17:04:31.443Z,30.10
2022-11-24T17:07:05.136Z,29.50
2022-11-24T17:09:40.841Z,29.20
2022-11-24T17:12:14.915Z,29.30
2022-11-24T17:15:09.291Z,32.20
2022-11-24T17:18:08.278Z,32.10
2022-11-24T17:20:37.068Z,35.20
2022-11-24T17:23:11.362Z,35.80
2022-11-24T17:25:45.188Z,33.40
2022-11-24T17:28:19.577Z,33.80
2022-11-24T17:30:53.586Z,34.00
2022-11-24T17:33:29.218Z,31.30
2022-11-24T17:36:08.280Z,31.40
2022-11-24T17:38:42.339Z,31.10
2022-11-24T17:41:16.357Z,33.50
2022-11-24T17:43:52.856Z,32.40
2022-11-24T17:46:27.167Z,32.40
2022-11-24T17:49:01.681Z,30.50
2022-11-24T17:51:35.501Z,32.40
2022-11-24T17:54:39.188Z,30.40
2022-11-24T17:57:03.953Z,30.30
2022-11-24T17:59:37.990Z,32.80
2022-11-24T18:02:13.229Z,29.30
2022-11-24T18:04:47.134Z,29.00
2022-11-24T18:07:20.929Z,29.90
2022-11-24T18:09:55.280Z,29.60
2022-11-24T18:12:29.038Z,31.60
2022-11-24T18:15:02.771Z,32.00
2022-11-24T18:17:36.434Z,30.40
2022-11-24T18:20:12.802Z,28.40
2022-11-24T18:25:40.662Z,29.10
2022-11-24T18:28:14.412Z,29.80
2022-11-24T18:30:48.525Z,28.70
2022-11-24T18:33:22.743Z,29.00
2022-11-24T18:36:03.652Z,28.00
2022-11-24T18:38:40.284Z,28.80
2022-11-24T18:41:18.317Z,27.40
2022-11-24T18:43:54.060Z,30.50
2022-11-24T18:46:31.048Z,29.70
2022-11-24T18:49:08.050Z,30.10
2022-11-24T18:51:44.322Z,27.50
2022-11-24T18:54:19.317Z,29.40
2022-11-24T18:56:57.771Z,29.00
2022-11-24T18:59:35.203Z,29.50
2022-11-24T19:02:11.090Z,28.80
2022-11-24T19:04:47.324Z,28.00
2022-11-24T19:07:24.062Z,30.00
2022-11-24T19:09:59.084Z,30.70
2022-11-24T19:12:34.377Z,29.30
2022-11-24T19:15:11.108Z,29.70
2022-11-24T19:17:48.194Z,29.00
2022-11-24T19:20:25.080Z,28.30
2022-11-24T19:23:03.107Z,28.30
2022-11-24T19:25:38.603Z,29.90
2022-11-24T19:28:13.446Z,34.00
2022-11-24T19:30:50.117Z,32.10
2022-11-24T19:33:26.097Z,30.60
2022-11-24T19:36:14.052Z,29.60
2022-11-24T19:45:44.061Z,29.40
2022-11-24T19:48:18.853Z,27.70
2022-11-24T19:51:01.707Z,28.30
2022-11-24T19:53:37.076Z,30.00
2022-11-24T19:56:14.185Z,31.00
2022-11-24T19:58:49.992Z,30.10
2022-11-24T20:01:27.574Z,30.10
2022-11-24T20:04:07.171Z,28.90
2022-11-24T20:06:46.090Z,30.00
2022-11-24T20:09:21.464Z,28.80
2022-11-24T20:11:56.435Z,31.70
2022-11-24T20:14:30.814Z,33.40
2022-11-24T20:17:06.995Z,32.00
2022-11-24T20:19:41.196Z,29.60
2022-11-24T20:22:15.286Z,32.40
2022-11-24T20:24:50.350Z,30.50
2022-11-24T20:27:24.314Z,31.50
2022-11-24T20:29:58.642Z,31.30
2022-11-24T20:32:32.739Z,31.70
2022-11-24T20:35:11.221Z,32.30
2022-11-24T20:37:50.017Z,30.40
2022-11-24T20:40:24.502Z,30.90
2022-11-24T20:42:59.489Z,30.50
2022-11-24T20:45:37.425Z,30.30
2022-11-24T20:48:11.935Z,31.50
2022-11-24T20:50:51.097Z,31.30
2022-11-24T20:53:25.955Z,30.70
2022-11-24T20:56:07.267Z,33.00
2022-11-24T20:58:41.600Z,36.30
2022-11-24T21:01:18.583Z,34.20
2022-11-24T21:03:57.780Z,34.30
2022-11-24T21:06:32.358Z,36.80
2022-11-24T21:09:08.338Z,36.20
2022-11-24T21:11:43.209Z,35.70
2022-11-24T21:14:17.491Z,35.90
2022-11-24T21:16:51.352Z,34.80
2022-11-24T21:19:25.928Z,36.80
2022-11-24T21:22:00.063Z,33.00
2022-11-24T21:24:33.956Z,32.40
2022-11-24T21:27:08.643Z,32.70
2022-11-24T21:29:42.359Z,32.30
2022-11-24T21:32:16.326Z,34.70
2022-11-24T21:34:50.507Z,36.00
2022-11-24T21:37:24.340Z,37.20
2022-11-24T21:39:58.704Z,35.00
2022-11-24T21:42:32.728Z,35.30
2022-11-24T21:45:10.746Z,34.20
2022-11-24T21:47:46.903Z,36.00
2022-11-24T21:50:21.359Z,38.90
2022-11-24T21:53:03.471Z,35.90
2022-11-24T21:55:38.209Z,36.20
2022-11-24T21:58:12.307Z,36.70
2022-11-24T22:00:46.463Z,35.60
2022-11-24T22:03:20.965Z,35.00
2022-11-24T22:06:02.421Z,36.90
2022-11-24T22:08:36.892Z,38.70
2022-11-24T22:11:16.090Z,37.70
2022-11-24T22:13:50.556Z,37.40
2022-11-24T22:16:26.978Z,37.40
2022-11-24T22:19:02.409Z,35.60
2022-11-24T22:21:36.428Z,40.10
2022-11-24T22:24:11.687Z,39.80
2022-11-24T22:26:45.568Z,37.30
2022-11-24T22:29:19.990Z,38.20
2022-11-24T22:31:53.921Z,37.70
2022-11-24T22:34:27.809Z,38.90
2022-11-24T22:37:01.845Z,38.00
2022-11-24T22:39:35.752Z,37.60
2022-11-24T22:42:11.081Z,37.00
2022-11-24T22:44:44.788Z,39.90
2022-11-24T22:47:18.683Z,39.90
2022-11-24T22:49:52.278Z,37.80
2022-11-24T22:52:26.047Z,36.10
2022-11-24T22:55:00.090Z,37.90
2022-11-24T22:57:33.910Z,40.40
2022-11-24T23:00:10.481Z,38.50
2022-11-24T23:02:44.259Z,39.70
2022-11-24T23:05:20.865Z,37.10
2022-11-24T23:07:55.994Z,39.20
2022-11-24T23:10:29.916Z,36.40
2022-11-24T23:13:03.821Z,37.80
2022-11-24T23:15:38.148Z,40.20
2022-11-24T23:18:11.840Z,37.30
2022-11-24T23:20:45.781Z,36.90
2022-11-24T23:23:19.467Z,39.30
2022-11-24T23:25:53.060Z,38.70
2022-11-24T23:28:27.015Z,39.70
2022-11-24T23:31:06.001Z,38.70
2022-11-24T23:33:40.741Z,40.60
2022-11-24T23:36:17.375Z,37.90
2022-11-24T23:38:51.521Z,39.40
2022-11-24T23:41:27.217Z,39.50
2022-11-24T23:44:01.392Z,37.80
2022-11-24T23:46:35.892Z,38.70
2022-11-24T23:49:10.399Z,38.20
2022-11-24T23:51:44.142Z,38.60
2022-11-24T23:54:18.345Z,39.60
2022-11-24T23:56:52.397Z,39.90
2022-11-24T23:59:27.165Z,40.50
